Time;durP1;ratioP1;P1;durP2;ratioP2;P2;SDS_P1;SDS_P2;PMS_P1;PMS_P2;Temp;Humidity;BMP_temperature;BMP_pressure;BME280_temperature;BME280_humidity;BME280_pressure;Samples;Min_cycle;Max_cycle;Signal;HPM_P1;HPM_P2
2022/01/11 00:01:42;;;;;;;22.30;13.20;;;;;;;;;;5073407;28;20564;-69
2022/01/11 00:04:15;;;;;;;22.43;13.30;;;;;;;;;;5073405;28;20912;-69
2022/01/11 00:06:45;;;;;;;25.80;14.07;;;;;;;;;;5073429;28;20402;-69
2022/01/11 00:09:30;;;;;;;28.13;13.43;;;;;;;;;;5073493;28;20429;-69
2022/01/11 00:11:56;;;;;;;23.50;12.27;;;;;;;;;;5073552;28;20904;-69
2022/01/11 00:14:22;;;;;;;21.50;12.00;;;;;;;;;;5073075;28;20897;-73
2022/01/11 00:16:48;;;;;;;20.80;12.60;;;;;;;;;;5072969;28;20449;-74
2022/01/11 00:19:15;;;;;;;25.13;12.03;;;;;;;;;;5073232;28;20413;-75
2022/01/11 00:21:46;;;;;;;19.73;11.83;;;;;;;;;;5073233;28;20469;-75
2022/01/11 00:24:29;;;;;;;18.03;11.93;;;;;;;;;;5073194;28;20410;-75
2022/01/11 00:27:03;;;;;;;22.03;11.97;;;;;;;;;;5072037;28;20423;-75
2022/01/11 00:29:30;;;;;;;22.70;12.40;;;;;;;;;;5073233;28;20423;-75
2022/01/11 00:32:00;;;;;;;22.70;13.40;;;;;;;;;;5073079;28;20401;-76
2022/01/11 00:34:29;;;;;;;18.40;12.43;;;;;;;;;;5073045;28;20901;-76
2022/01/11 00:36:55;;;;;;;22.90;13.70;;;;;;;;;;5073038;28;20404;-75
2022/01/11 00:39:21;;;;;;;27.70;14.23;;;;;;;;;;5072998;28;20406;-72
2022/01/11 00:41:47;;;;;;;21.53;13.60;;;;;;;;;;5073010;28;20512;-76
2022/01/11 00:44:13;;;;;;;20.40;11.93;;;;;;;;;;5072984;28;20402;-77
2022/01/11 00:46:40;;;;;;;26.47;12.70;;;;;;;;;;5073016;28;20588;-76
2022/01/11 00:49:06;;;;;;;19.97;11.60;;;;;;;;;;5071757;28;20419;-76
2022/01/11 00:51:32;;;;;;;23.77;14.10;;;;;;;;;;5073065;28;20409;-75
2022/01/11 00:53:58;;;;;;;25.10;12.80;;;;;;;;;;5072816;28;20505;-77
2022/01/11 00:56:24;;;;;;;20.17;12.00;;;;;;;;;;5072934;28;20905;-77
2022/01/11 00:58:50;;;;;;;18.87;11.53;;;;;;;;;;5064060;28;20944;-77
2022/01/11 01:01:16;;;;;;;19.40;12.57;;;;;;;;;;5034926;28;20504;-77
2022/01/11 01:03:42;;;;;;;22.90;12.70;;;;;;;;;;5052914;28;20411;-75
2022/01/11 01:06:09;;;;;;;20.73;11.87;;;;;;;;;;5052855;28;20436;-76
2022/01/11 01:08:35;;;;;;;23.13;13.07;;;;;;;;;;5052982;28;20468;-76
2022/01/11 01:11:01;;;;;;;22.90;14.37;;;;;;;;;;5052955;28;20410;-76
2022/01/11 01:13:28;;;;;;;21.60;13.37;;;;;;;;;;5052518;28;20476;-75
2022/01/11 01:15:55;;;;;;;19.13;11.97;;;;;;;;;;5034832;28;20407;-72
2022/01/11 01:18:23;;;;;;;23.17;12.37;;;;;;;;;;5052840;28;20397;-71
2022/01/11 01:20:49;;;;;;;18.10;12.73;;;;;;;;;;5052828;28;20406;-75
2022/01/11 01:23:15;;;;;;;20.73;12.70;;;;;;;;;;5052633;28;20411;-73
2022/01/11 01:25:42;;;;;;;29.93;14.60;;;;;;;;;;5034735;28;20465;-70
2022/01/11 01:28:09;;;;;;;25.10;15.47;;;;;;;;;;5055812;28;20417;-70
2022/01/11 01:30:35;;;;;;;23.60;14.93;;;;;;;;;;5038482;28;20417;-70
2022/01/11 01:33:01;;;;;;;29.00;14.83;;;;;;;;;;5038276;28;20421;-70
2022/01/11 01:35:33;;;;;;;25.57;14.70;;;;;;;;;;5056115;28;20410;-71
2022/01/11 01:37:59;;;;;;;25.90;15.40;;;;;;;;;;5056234;28;20492;-70
2022/01/11 01:40:26;;;;;;;36.00;15.37;;;;;;;;;;5056039;28;20410;-70
2022/01/11 01:42:52;;;;;;;25.30;16.00;;;;;;;;;;5038041;28;21054;-70
2022/01/11 01:45:23;;;;;;;26.53;15.27;;;;;;;;;;5055990;28;20491;-70
2022/01/11 01:47:53;;;;;;;27.60;16.07;;;;;;;;;;5056006;28;20398;-71
2022/01/11 01:50:19;;;;;;;31.73;16.63;;;;;;;;;;5038091;28;20413;-71
2022/01/11 01:52:45;;;;;;;31.57;16.87;;;;;;;;;;5055711;28;20403;-70
2022/01/11 01:55:11;;;;;;;30.30;16.20;;;;;;;;;;5055816;28;20415;-70
2022/01/11 01:57:37;;;;;;;35.70;16.30;;;;;;;;;;5037905;28;20411;-70
2022/01/11 02:00:11;;;;;;;35.37;14.90;;;;;;;;;;5055620;28;20462;-70
2022/01/11 02:02:37;;;;;;;27.53;15.30;;;;;;;;;;5055691;28;20477;-71
2022/01/11 02:05:05;;;;;;;30.80;15.87;;;;;;;;;;5055715;28;20943;-70
2022/01/11 02:07:32;;;;;;;25.00;15.13;;;;;;;;;;5055598;28;20471;-70
2022/01/11 02:09:58;;;;;;;32.20;16.57;;;;;;;;;;5037673;28;20422;-71
2022/01/11 02:12:24;;;;;;;31.47;18.37;;;;;;;;;;5037655;28;20445;-70
2022/01/11 02:14:50;;;;;;;27.03;16.20;;;;;;;;;;5055358;28;20468;-70
2022/01/11 02:17:16;;;;;;;34.03;16.97;;;;;;;;;;5037425;28;20414;-71
2022/01/11 02:19:42;;;;;;;31.03;16.77;;;;;;;;;;5055286;28;20815;-70
2022/01/11 02:22:08;;;;;;;27.90;16.97;;;;;;;;;;5055268;28;20467;-72
2022/01/11 02:24:34;;;;;;;28.50;15.73;;;;;;;;;;5055328;28;20403;-70
2022/01/11 02:27:00;;;;;;;30.87;16.50;;;;;;;;;;5055242;28;20395;-70
2022/01/11 02:29:27;;;;;;;31.13;15.80;;;;;;;;;;5055099;28;20434;-70
2022/01/11 02:31:53;;;;;;;31.10;15.00;;;;;;;;;;5055204;28;20410;-71
2022/01/11 02:34:19;;;;;;;27.07;15.57;;;;;;;;;;5037104;28;20430;-70
2022/01/11 02:36:45;;;;;;;25.90;13.97;;;;;;;;;;5054995;28;20409;-70
2022/01/11 02:39:11;;;;;;;27.77;16.70;;;;;;;;;;5054122;28;20501;-72
2022/01/11 02:41:48;;;;;;;30.20;16.27;;;;;;;;;;5054921;28;20850;-70
2022/01/11 02:44:14;;;;;;;26.70;16.00;;;;;;;;;;5036976;28;20750;-71
2022/01/11 02:46:40;;;;;;;33.03;15.07;;;;;;;;;;5054839;28;20959;-71
2022/01/11 02:49:06;;;;;;;33.37;16.10;;;;;;;;;;5054915;28;20399;-71
2022/01/11 02:51:32;;;;;;;27.40;16.40;;;;;;;;;;5054827;28;20552;-71
2022/01/11 02:53:59;;;;;;;27.37;16.20;;;;;;;;;;5054578;28;20406;-70
2022/01/11 02:56:26;;;;;;;29.97;16.60;;;;;;;;;;5036864;28;20430;-71
2022/01/11 02:58:52;;;;;;;32.17;15.83;;;;;;;;;;5054444;28;20556;-71
2022/01/11 03:01:18;;;;;;;26.07;14.83;;;;;;;;;;5036644;28;20486;-70
2022/01/11 03:03:45;;;;;;;24.10;13.13;;;;;;;;;;5054576;28;20411;-70
2022/01/11 03:06:11;;;;;;;23.10;13.50;;;;;;;;;;5054605;28;20438;-72
2022/01/11 03:08:39;;;;;;;24.63;14.07;;;;;;;;;;5054575;28;20406;-72
2022/01/11 03:11:06;;;;;;;19.97;12.90;;;;;;;;;;5054026;28;20438;-75
2022/01/11 03:13:35;;;;;;;24.87;14.30;;;;;;;;;;5054742;28;20410;-74
2022/01/11 03:16:01;;;;;;;24.20;12.73;;;;;;;;;;5054545;28;20453;-77
2022/01/11 03:18:27;;;;;;;20.80;13.60;;;;;;;;;;5054229;28;20961;-76
2022/01/11 03:20:53;;;;;;;26.37;14.17;;;;;;;;;;5054136;28;20439;-74
2022/01/11 03:23:19;;;;;;;23.20;14.10;;;;;;;;;;5054114;28;20402;-76
2022/01/11 03:25:46;;;;;;;24.13;12.60;;;;;;;;;;5036255;28;20418;-75
2022/01/11 03:28:12;;;;;;;23.90;13.97;;;;;;;;;;5036244;28;20466;-75
2022/01/11 03:30:38;;;;;;;24.43;14.27;;;;;;;;;;5054009;28;20407;-75
2022/01/11 03:33:08;;;;;;;24.60;13.90;;;;;;;;;;5053974;28;20403;-75
2022/01/11 03:35:34;;;;;;;36.30;14.83;;;;;;;;;;5036125;28;20866;-73
2022/01/11 03:38:01;;;;;;;27.30;14.50;;;;;;;;;;5036103;28;20500;-76
2022/01/11 03:40:27;;;;;;;29.40;14.90;;;;;;;;;;5053938;28;20408;-76
2022/01/11 03:42:53;;;;;;;28.13;13.80;;;;;;;;;;5053851;28;20944;-74
2022/01/11 03:45:23;;;;;;;25.23;13.20;;;;;;;;;;5035815;28;20407;-73
2022/01/11 03:47:50;;;;;;;20.50;12.60;;;;;;;;;;5053727;28;20501;-73
2022/01/11 03:50:18;;;;;;;20.10;11.73;;;;;;;;;;5053649;28;20414;-74
2022/01/11 03:52:44;;;;;;;23.13;12.53;;;;;;;;;;5035604;28;20418;-75
2022/01/11 03:55:12;;;;;;;22.47;12.80;;;;;;;;;;5053709;28;20470;-74
2022/01/11 03:57:39;;;;;;;20.03;11.40;;;;;;;;;;5053662;28;20458;-75
2022/01/11 04:00:08;;;;;;;21.90;13.80;;;;;;;;;;5069806;28;20456;-71
2022/01/11 04:02:34;;;;;;;26.13;13.47;;;;;;;;;;5073409;28;20576;-72
2022/01/11 04:05:00;;;;;;;26.37;13.30;;;;;;;;;;5072126;28;20975;-73
2022/01/11 04:07:26;;;;;;;26.13;14.40;;;;;;;;;;5073489;28;20402;-74
2022/01/11 04:09:53;;;;;;;23.83;15.30;;;;;;;;;;5072124;28;20407;-75
2022/01/11 04:12:19;;;;;;;24.10;15.00;;;;;;;;;;5073361;28;20952;-71
2022/01/11 04:14:46;;;;;;;29.10;15.50;;;;;;;;;;5073206;28;20398;-70
2022/01/11 04:17:12;;;;;;;25.13;14.63;;;;;;;;;;5073385;28;20471;-70
2022/01/11 04:19:38;;;;;;;32.00;15.93;;;;;;;;;;5073285;28;20404;-70
2022/01/11 04:22:05;;;;;;;29.90;16.27;;;;;;;;;;5073089;28;20470;-70
2022/01/11 04:24:31;;;;;;;29.00;16.20;;;;;;;;;;5071825;28;20481;-71
2022/01/11 04:26:57;;;;;;;26.07;14.50;;;;;;;;;;5073299;28;20409;-73
2022/01/11 04:29:23;;;;;;;27.30;15.90;;;;;;;;;;5073049;28;20895;-72
2022/01/11 04:31:49;;;;;;;31.70;15.40;;;;;;;;;;5073071;28;20410;-74
2022/01/11 04:34:15;;;;;;;28.20;14.93;;;;;;;;;;5073041;28;20398;-74
2022/01/11 04:36:41;;;;;;;27.60;15.43;;;;;;;;;;5073123;28;20454;-75
2022/01/11 04:39:09;;;;;;;28.13;16.03;;;;;;;;;;5072952;28;20400;-75
2022/01/11 04:41:36;;;;;;;29.37;15.73;;;;;;;;;;5071670;28;20486;-71
2022/01/11 04:44:02;;;;;;;27.30;15.73;;;;;;;;;;5073057;28;20408;-73
2022/01/11 04:46:28;;;;;;;27.00;15.50;;;;;;;;;;5072983;28;20530;-69
2022/01/11 04:48:54;;;;;;;24.90;15.53;;;;;;;;;;5071667;28;20418;-70
2022/01/11 04:51:20;;;;;;;29.40;13.97;;;;;;;;;;5072883;28;20437;-71
2022/01/11 04:53:49;;;;;;;31.20;15.80;;;;;;;;;;5072777;28;20479;-70
2022/01/11 04:56:15;;;;;;;27.83;16.40;;;;;;;;;;5072907;28;20409;-70
2022/01/11 04:58:41;;;;;;;31.43;16.87;;;;;;;;;;5065500;28;20527;-69
2022/01/11 05:01:07;;;;;;;32.20;18.03;;;;;;;;;;5052900;28;20469;-70
2022/01/11 05:03:34;;;;;;;31.40;15.53;;;;;;;;;;5056841;28;20497;-70
2022/01/11 05:06:00;;;;;;;33.10;18.33;;;;;;;;;;5056722;28;20406;-69
2022/01/11 05:08:26;;;;;;;36.37;18.70;;;;;;;;;;5056699;28;20417;-69
2022/01/11 05:10:52;;;;;;;29.57;15.90;;;;;;;;;;5038597;28;20403;-70
2022/01/11 05:13:20;;;;;;;37.50;17.90;;;;;;;;;;5056500;28;20904;-69
2022/01/11 05:15:46;;;;;;;29.73;16.70;;;;;;;;;;5056623;28;20406;-70
2022/01/11 05:18:12;;;;;;;29.60;15.90;;;;;;;;;;5038642;28;20407;-70
2022/01/11 05:20:39;;;;;;;34.83;16.80;;;;;;;;;;5056459;28;20494;-69
2022/01/11 05:23:05;;;;;;;31.93;16.57;;;;;;;;;;5056253;28;20560;-69
2022/01/11 05:25:32;;;;;;;38.97;16.27;;;;;;;;;;5056368;28;20406;-69
2022/01/11 05:28:01;;;;;;;42.00;17.83;;;;;;;;;;5038504;28;20428;-72
2022/01/11 05:30:28;;;;;;;38.63;18.40;;;;;;;;;;5056286;28;20460;-69
2022/01/11 05:32:54;;;;;;;33.17;18.10;;;;;;;;;;5056062;28;20436;-69
2022/01/11 05:35:21;;;;;;;36.73;17.33;;;;;;;;;;5056195;28;20405;-71
2022/01/11 05:37:47;;;;;;;29.83;17.20;;;;;;;;;;5056160;28;20441;-70
2022/01/11 05:40:14;;;;;;;38.67;18.60;;;;;;;;;;5056177;28;20459;-70
2022/01/11 05:42:41;;;;;;;31.03;16.63;;;;;;;;;;5055977;28;20975;-71
2022/01/11 05:45:08;;;;;;;35.00;17.37;;;;;;;;;;5038041;28;20442;-70
2022/01/11 05:47:34;;;;;;;35.33;17.60;;;;;;;;;;5055985;28;20498;-70
2022/01/11 05:50:01;;;;;;;34.37;18.67;;;;;;;;;;5056055;28;20414;-71
2022/01/11 05:52:27;;;;;;;41.90;19.20;;;;;;;;;;5037875;28;20910;-70
2022/01/11 05:54:53;;;;;;;29.07;16.87;;;;;;;;;;5055751;28;20431;-70
2022/01/11 05:57:19;;;;;;;37.17;18.53;;;;;;;;;;5055687;28;20428;-70
2022/01/11 05:59:46;;;;;;;33.00;18.80;;;;;;;;;;5066708;28;20458;-70
2022/01/11 06:02:12;;;;;;;30.23;17.40;;;;;;;;;;5075699;28;20460;-70
2022/01/11 06:04:37;;;;;;;29.70;17.53;;;;;;;;;;5075598;28;20411;-70
2022/01/11 06:07:04;;;;;;;31.03;17.20;;;;;;;;;;5075744;28;20414;-70
2022/01/11 06:09:30;;;;;;;33.50;17.67;;;;;;;;;;5075653;28;20433;-70
2022/01/11 06:11:56;;;;;;;33.53;18.80;;;;;;;;;;5075407;28;20807;-70
2022/01/11 06:14:23;;;;;;;28.33;16.60;;;;;;;;;;5073986;28;20409;-71
2022/01/11 06:16:49;;;;;;;35.47;18.90;;;;;;;;;;5075438;28;20438;-70
2022/01/11 06:19:15;;;;;;;28.40;16.43;;;;;;;;;;5075473;28;20406;-70
2022/01/11 06:21:41;;;;;;;34.30;17.40;;;;;;;;;;5075314;28;20877;-71
2022/01/11 06:24:07;;;;;;;32.80;17.47;;;;;;;;;;5073891;28;20858;-71
2022/01/11 06:26:34;;;;;;;28.10;17.63;;;;;;;;;;5075382;28;20433;-71
2022/01/11 06:29:01;;;;;;;32.30;16.43;;;;;;;;;;5075239;28;20467;-70
2022/01/11 06:31:28;;;;;;;28.20;17.20;;;;;;;;;;5075069;28;20427;-71
2022/01/11 06:33:54;;;;;;;29.80;16.93;;;;;;;;;;5074966;28;20459;-71
2022/01/11 06:36:20;;;;;;;29.43;16.00;;;;;;;;;;5075061;28;20430;-71
2022/01/11 06:38:46;;;;;;;31.50;17.63;;;;;;;;;;5075016;28;20426;-71
2022/01/11 06:41:13;;;;;;;31.90;17.43;;;;;;;;;;5074806;28;20514;-71
2022/01/11 06:43:39;;;;;;;32.60;17.80;;;;;;;;;;5074764;28;20419;-70
2022/01/11 06:46:05;;;;;;;33.90;16.40;;;;;;;;;;5074874;28;20395;-71
2022/01/11 06:48:32;;;;;;;29.93;16.60;;;;;;;;;;5074883;28;20524;-71
2022/01/11 06:50:58;;;;;;;28.60;16.60;;;;;;;;;;5074730;28;20445;-70
2022/01/11 06:53:24;;;;;;;30.53;16.90;;;;;;;;;;5074654;28;20402;-71
2022/01/11 06:55:53;;;;;;;45.43;18.90;;;;;;;;;;5074707;28;20402;-70
2022/01/11 06:58:19;;;;;;;38.40;18.47;;;;;;;;;;5070462;28;20450;-70
2022/01/11 07:00:45;;;;;;;30.77;17.00;;;;;;;;;;5054480;28;20421;-71
2022/01/11 07:03:11;;;;;;;30.57;16.90;;;;;;;;;;5054444;28;20490;-70
2022/01/11 07:05:37;;;;;;;33.80;17.30;;;;;;;;;;5054504;28;20429;-71
2022/01/11 07:08:03;;;;;;;31.17;18.50;;;;;;;;;;5054508;28;20414;-71
2022/01/11 07:10:29;;;;;;;27.80;16.80;;;;;;;;;;5054289;28;20420;-71
2022/01/11 07:12:57;;;;;;;28.63;17.27;;;;;;;;;;5054248;28;20895;-71
2022/01/11 07:15:23;;;;;;;27.00;17.47;;;;;;;;;;5054302;28;20402;-71
2022/01/11 07:17:49;;;;;;;38.40;18.73;;;;;;;;;;5054289;28;20419;-70
2022/01/11 07:20:15;;;;;;;32.33;17.13;;;;;;;;;;5054317;28;20424;-71
2022/01/11 07:22:41;;;;;;;31.27;17.10;;;;;;;;;;5054063;28;20640;-72
2022/01/11 07:25:07;;;;;;;32.20;17.30;;;;;;;;;;5053584;28;20407;-71
2022/01/11 07:27:34;;;;;;;33.10;16.87;;;;;;;;;;5054091;28;20406;-72
2022/01/11 07:30:00;;;;;;;31.13;17.47;;;;;;;;;;5054016;28;20408;-71
2022/01/11 07:32:26;;;;;;;26.13;15.60;;;;;;;;;;5053795;28;20468;-73
2022/01/11 07:34:52;;;;;;;48.73;20.00;;;;;;;;;;5053969;28;20411;-72
2022/01/11 07:37:18;;;;;;;29.27;17.20;;;;;;;;;;5053952;28;20436;-71
2022/01/11 07:39:45;;;;;;;30.57;17.00;;;;;;;;;;5053829;28;20788;-73
2022/01/11 07:42:11;;;;;;;30.10;18.23;;;;;;;;;;5053746;28;20497;-71
2022/01/11 07:44:37;;;;;;;27.70;16.83;;;;;;;;;;5035833;28;20434;-70
2022/01/11 07:47:04;;;;;;;31.53;17.13;;;;;;;;;;5053700;28;20402;-70
2022/01/11 07:49:30;;;;;;;29.60;15.60;;;;;;;;;;5035675;28;20816;-70
2022/01/11 07:51:56;;;;;;;35.17;16.37;;;;;;;;;;5035544;28;20466;-75
2022/01/11 07:54:23;;;;;;;31.47;17.17;;;;;;;;;;5053517;28;20403;-72
2022/01/11 07:56:49;;;;;;;27.73;16.97;;;;;;;;;;5053536;28;20489;-73
2022/01/11 07:59:15;;;;;;;28.80;15.27;;;;;;;;;;5055784;28;20503;-72
2022/01/11 08:01:41;;;;;;;25.93;16.77;;;;;;;;;;5073221;28;20453;-74
2022/01/11 08:04:09;;;;;;;28.60;17.43;;;;;;;;;;5073248;28;20458;-72
2022/01/11 08:06:35;;;;;;;28.00;15.67;;;;;;;;;;5072268;28;20479;-72
2022/01/11 08:09:01;;;;;;;24.50;16.10;;;;;;;;;;5073363;28;20422;-73
2022/01/11 08:11:27;;;;;;;26.03;16.23;;;;;;;;;;5073304;28;20402;-72
2022/01/11 08:13:53;;;;;;;30.47;16.70;;;;;;;;;;5073416;28;20835;-72
2022/01/11 08:16:19;;;;;;;28.47;15.30;;;;;;;;;;5073249;28;20889;-72
2022/01/11 08:18:45;;;;;;;27.10;15.37;;;;;;;;;;5073141;28;20497;-73
2022/01/11 08:21:11;;;;;;;26.13;15.50;;;;;;;;;;5071800;28;21017;-73
2022/01/11 08:23:37;;;;;;;27.43;16.40;;;;;;;;;;5073231;28;20413;-74
2022/01/11 08:26:04;;;;;;;32.27;16.77;;;;;;;;;;5073130;28;20414;-73
2022/01/11 08:28:30;;;;;;;31.33;15.43;;;;;;;;;;5073138;28;20463;-74
2022/01/11 08:30:59;;;;;;;31.77;16.10;;;;;;;;;;5073044;28;20903;-75
2022/01/11 08:33:25;;;;;;;31.40;17.13;;;;;;;;;;5072860;28;20400;-74
2022/01/11 08:35:52;;;;;;;32.70;17.20;;;;;;;;;;5072387;28;20809;-70
2022/01/11 08:38:18;;;;;;;34.30;16.67;;;;;;;;;;5072858;28;20394;-73
2022/01/11 08:40:44;;;;;;;35.00;17.63;;;;;;;;;;5073086;28;20803;-70
2022/01/11 08:43:10;;;;;;;29.10;16.50;;;;;;;;;;5071612;28;20465;-70
2022/01/11 08:45:36;;;;;;;31.27;16.60;;;;;;;;;;5071859;28;20421;-72
2022/01/11 08:48:03;;;;;;;32.60;16.83;;;;;;;;;;5072869;28;20439;-72
2022/01/11 08:50:29;;;;;;;27.33;16.40;;;;;;;;;;5071576;28;20781;-71
2022/01/11 08:52:55;;;;;;;26.90;15.73;;;;;;;;;;5072875;28;20402;-71
2022/01/11 08:55:21;;;;;;;32.10;16.40;;;;;;;;;;5072923;28;20413;-72
2022/01/11 08:57:47;;;;;;;27.57;16.20;;;;;;;;;;5072767;28;20401;-72
2022/01/11 09:00:18;;;;;;;30.70;16.10;;;;;;;;;;5071454;28;20516;-73
2022/01/11 09:02:47;;;;;;;27.50;16.07;;;;;;;;;;5072637;28;20476;-70
2022/01/11 09:05:14;;;;;;;33.13;17.50;;;;;;;;;;5072663;28;20413;-71
2022/01/11 09:07:40;;;;;;;28.97;16.03;;;;;;;;;;5072691;28;20457;-70
2022/01/11 09:10:07;;;;;;;30.33;16.40;;;;;;;;;;5071386;28;20402;-72
2022/01/11 09:12:33;;;;;;;30.23;16.87;;;;;;;;;;5071504;28;20500;-71
2022/01/11 09:14:59;;;;;;;25.60;15.60;;;;;;;;;;5072690;28;20394;-71
2022/01/11 09:17:25;;;;;;;30.87;16.03;;;;;;;;;;5072728;28;20909;-72
2022/01/11 09:19:51;;;;;;;32.40;17.00;;;;;;;;;;5072630;28;20842;-72
2022/01/11 09:22:17;;;;;;;24.67;14.70;;;;;;;;;;5072551;28;20465;-71
2022/01/11 09:24:43;;;;;;;31.30;15.43;;;;;;;;;;5072499;28;20464;-73
2022/01/11 09:27:09;;;;;;;26.83;14.50;;;;;;;;;;5071220;28;20504;-71
2022/01/11 09:29:39;;;;;;;26.73;13.30;;;;;;;;;;5071319;28;20456;-74
2022/01/11 09:32:06;;;;;;;22.33;13.50;;;;;;;;;;5072642;28;20929;-72
2022/01/11 09:34:32;;;;;;;27.33;14.17;;;;;;;;;;5072393;28;20463;-70
2022/01/11 09:36:58;;;;;;;26.63;14.57;;;;;;;;;;5072410;28;20475;-71
2022/01/11 09:39:25;;;;;;;23.00;14.00;;;;;;;;;;5072413;28;20410;-73
2022/01/11 09:41:51;;;;;;;26.40;14.03;;;;;;;;;;5072468;28;20466;-72
2022/01/11 09:44:18;;;;;;;28.23;14.47;;;;;;;;;;5071217;28;20421;-72
2022/01/11 09:46:44;;;;;;;25.07;13.53;;;;;;;;;;5072496;28;20434;-72
2022/01/11 09:49:10;;;;;;;25.83;13.73;;;;;;;;;;5074476;28;20421;-72
2022/01/11 09:51:36;;;;;;;24.83;14.73;;;;;;;;;;5074581;28;20418;-72
2022/01/11 09:54:04;;;;;;;27.60;14.90;;;;;;;;;;5075772;28;20499;-72
2022/01/11 09:56:30;;;;;;;26.20;14.83;;;;;;;;;;5075847;28;20423;-72
2022/01/11 09:58:57;;;;;;;23.60;14.70;;;;;;;;;;5066386;28;20816;-72
2022/01/11 10:01:23;;;;;;;29.13;14.50;;;;;;;;;;5055647;28;20618;-72
2022/01/11 10:03:55;;;;;;;25.80;14.30;;;;;;;;;;5037658;28;20522;-71
2022/01/11 10:06:22;;;;;;;26.93;14.80;;;;;;;;;;5055659;28;20419;-71
2022/01/11 10:08:49;;;;;;;26.43;15.10;;;;;;;;;;5055658;28;20514;-72
2022/01/11 10:11:15;;;;;;;23.87;14.87;;;;;;;;;;5055418;28;20407;-72
2022/01/11 10:13:42;;;;;;;24.97;14.43;;;;;;;;;;5037473;28;20917;-71
2022/01/11 10:16:18;;;;;;;25.40;14.87;;;;;;;;;;5055434;28;20411;-71
2022/01/11 10:18:44;;;;;;;26.10;14.50;;;;;;;;;;5055438;28;20406;-71
2022/01/11 10:21:29;;;;;;;25.30;15.17;;;;;;;;;;5037532;28;20499;-71
2022/01/11 10:23:55;;;;;;;26.63;14.53;;;;;;;;;;5055373;28;20417;-72
2022/01/11 10:26:40;;;;;;;24.70;13.70;;;;;;;;;;5055165;28;20407;-72
2022/01/11 10:29:23;;;;;;;24.40;14.90;;;;;;;;;;5037200;28;20446;-72
2022/01/11 10:31:49;;;;;;;23.73;14.70;;;;;;;;;;5055137;28;20446;-74
2022/01/11 10:34:15;;;;;;;23.73;13.83;;;;;;;;;;5055108;28;20909;-74
2022/01/11 10:36:44;;;;;;;27.33;14.50;;;;;;;;;;5055198;28;20411;-73
2022/01/11 10:39:28;;;;;;;25.50;14.50;;;;;;;;;;5054975;28;20398;-71
2022/01/11 10:41:54;;;;;;;26.90;13.73;;;;;;;;;;5054872;28;20473;-71
2022/01/11 10:44:42;;;;;;;22.13;13.27;;;;;;;;;;5037032;28;20425;-72
2022/01/11 10:47:08;;;;;;;23.80;13.20;;;;;;;;;;5054859;28;20410;-73
2022/01/11 10:49:35;;;;;;;21.70;13.53;;;;;;;;;;5054792;28;20407;-73
2022/01/11 10:52:31;;;;;;;28.77;14.57;;;;;;;;;;5054716;28;21001;-72
2022/01/11 10:54:58;;;;;;;25.47;13.13;;;;;;;;;;5034576;28;20501;-73
2022/01/11 10:57:26;;;;;;;20.47;13.40;;;;;;;;;;5054738;28;20417;-74
2022/01/11 11:00:05;;;;;;;21.47;13.10;;;;;;;;;;5053645;28;20462;-72
2022/01/11 11:02:31;;;;;;;26.83;12.87;;;;;;;;;;5054376;28;20477;-72
2022/01/11 11:05:00;;;;;;;22.73;13.70;;;;;;;;;;5054586;28;20420;-72
2022/01/11 11:07:27;;;;;;;22.00;12.77;;;;;;;;;;5054393;28;20443;-73
2022/01/11 11:09:54;;;;;;;23.50;12.67;;;;;;;;;;5054477;28;20457;-71
2022/01/11 11:12:21;;;;;;;24.70;13.63;;;;;;;;;;5054200;28;20410;-71
2022/01/11 11:14:50;;;;;;;16.80;10.70;;;;;;;;;;5036214;28;20436;-71
2022/01/11 11:17:35;;;;;;;19.30;11.70;;;;;;;;;;5054239;28;20415;-73
2022/01/11 11:20:04;;;;;;;13.83;9.60;;;;;;;;;;5054258;28;20402;-73
2022/01/11 11:22:30;;;;;;;16.67;10.03;;;;;;;;;;5053959;28;20474;-73
2022/01/11 11:24:56;;;;;;;18.20;11.63;;;;;;;;;;5036281;28;20820;-71
2022/01/11 11:27:23;;;;;;;17.93;11.40;;;;;;;;;;5054129;28;20498;-71
2022/01/11 11:29:50;;;;;;;17.10;10.80;;;;;;;;;;5054056;28;20859;-74
2022/01/11 11:32:18;;;;;;;19.17;11.73;;;;;;;;;;5053856;28;20445;-76
2022/01/11 11:34:50;;;;;;;17.23;10.67;;;;;;;;;;5054033;28;20459;-75
2022/01/11 11:37:28;;;;;;;23.50;13.50;;;;;;;;;;5054071;28;20454;-72
2022/01/11 11:39:56;;;;;;;23.10;13.07;;;;;;;;;;5036017;28;20415;-72
2022/01/11 11:42:23;;;;;;;20.43;11.43;;;;;;;;;;5053530;28;20506;-73
2022/01/11 11:44:49;;;;;;;24.30;11.53;;;;;;;;;;5053774;28;20909;-72
2022/01/11 11:47:15;;;;;;;22.23;12.50;;;;;;;;;;5053745;28;20413;-74
2022/01/11 11:49:46;;;;;;;18.80;10.73;;;;;;;;;;5035691;28;20893;-72
2022/01/11 11:52:29;;;;;;;20.90;12.40;;;;;;;;;;5035713;28;20847;-73
2022/01/11 11:55:03;;;;;;;19.00;11.33;;;;;;;;;;5053758;28;20443;-72
2022/01/11 11:57:31;;;;;;;18.27;11.37;;;;;;;;;;5035760;28;20438;-75
2022/01/11 12:00:00;;;;;;;19.90;11.17;;;;;;;;;;5053355;28;20543;-73
2022/01/11 12:02:32;;;;;;;22.47;10.40;;;;;;;;;;5053298;28;20968;-74
2022/01/11 12:04:58;;;;;;;17.10;10.33;;;;;;;;;;5053499;28;20469;-74
2022/01/11 12:07:32;;;;;;;19.00;10.30;;;;;;;;;;5053427;28;20459;-75
2022/01/11 12:09:58;;;;;;;18.30;11.57;;;;;;;;;;5053412;28;20396;-77
2022/01/11 12:12:43;;;;;;;18.87;10.40;;;;;;;;;;5053180;28;20436;-76
2022/01/11 12:15:31;;;;;;;19.40;10.90;;;;;;;;;;5035372;28;20415;-74
2022/01/11 12:17:57;;;;;;;20.60;9.90;;;;;;;;;;5053233;28;20438;-73
2022/01/11 12:20:42;;;;;;;12.70;8.20;;;;;;;;;;5053222;28;20478;-74
2022/01/11 12:23:08;;;;;;;10.20;6.60;;;;;;;;;;5052942;28;20454;-75
2022/01/11 12:25:41;;;;;;;11.57;6.97;;;;;;;;;;5053073;28;20500;-75
2022/01/11 12:28:08;;;;;;;9.77;6.20;;;;;;;;;;5053069;28;20442;-75
2022/01/11 12:30:34;;;;;;;10.37;6.27;;;;;;;;;;5053002;28;20415;-72
2022/01/11 12:33:08;;;;;;;14.90;7.50;;;;;;;;;;5035295;28;20427;-74
2022/01/11 12:35:49;;;;;;;13.13;7.17;;;;;;;;;;5053153;28;20455;-74
2022/01/11 12:38:15;;;;;;;11.73;6.10;;;;;;;;;;5053091;28;20407;-74
2022/01/11 12:40:42;;;;;;;5.80;3.43;;;;;;;;;;5052911;28;20430;-73
2022/01/11 12:43:16;;;;;;;4.67;3.90;;;;;;;;;;5052924;28;20991;-76
2022/01/11 12:46:01;;;;;;;7.70;4.97;;;;;;;;;;5053096;28;20748;-76
2022/01/11 12:48:47;;;;;;;8.70;5.00;;;;;;;;;;5052894;28;20409;-75
2022/01/11 12:51:32;;;;;;;6.40;3.87;;;;;;;;;;5052812;28;20394;-75
2022/01/11 12:54:10;;;;;;;5.43;4.50;;;;;;;;;;5035000;28;20415;-76
2022/01/11 12:56:36;;;;;;;7.83;4.10;;;;;;;;;;5052741;28;20460;-77
2022/01/11 12:59:03;;;;;;;5.53;3.80;;;;;;;;;;5052667;28;20464;-76
2022/01/11 13:01:29;;;;;;;5.80;3.63;;;;;;;;;;5052694;28;20489;-75
2022/01/11 13:03:57;;;;;;;5.97;3.93;;;;;;;;;;5052676;28;20413;-71
2022/01/11 13:06:23;;;;;;;7.30;4.50;;;;;;;;;;5052687;28;20748;-75
2022/01/11 13:08:55;;;;;;;6.07;4.47;;;;;;;;;;5052833;28;20422;-77
2022/01/11 13:11:21;;;;;;;3.87;3.47;;;;;;;;;;5052546;28;20811;-73
2022/01/11 13:13:56;;;;;;;5.27;3.20;;;;;;;;;;5052659;28;20402;-73
2022/01/11 13:16:23;;;;;;;5.33;3.80;;;;;;;;;;5052784;28;20401;-71
2022/01/11 13:18:49;;;;;;;4.40;2.93;;;;;;;;;;5034660;28;20405;-71
2022/01/11 13:21:20;;;;;;;8.00;3.80;;;;;;;;;;5052589;28;20414;-73
2022/01/11 13:23:58;;;;;;;4.20;3.27;;;;;;;;;;5055519;28;20413;-72
2022/01/11 13:26:26;;;;;;;4.33;3.10;;;;;;;;;;5056435;28;20406;-72
2022/01/11 13:28:56;;;;;;;5.40;3.70;;;;;;;;;;5038551;28;20422;-70
2022/01/11 13:31:27;;;;;;;7.60;4.03;;;;;;;;;;5056307;28;20414;-71
2022/01/11 13:33:55;;;;;;;5.47;4.03;;;;;;;;;;5056234;28;20488;-70
2022/01/11 13:36:27;;;;;;;8.17;4.30;;;;;;;;;;5056260;28;20423;-72
2022/01/11 13:38:56;;;;;;;6.37;3.93;;;;;;;;;;5056234;28;20427;-71
2022/01/11 13:41:32;;;;;;;7.00;4.70;;;;;;;;;;5055980;28;20954;-72
2022/01/11 13:43:58;;;;;;;7.00;4.23;;;;;;;;;;5056085;28;20765;-73
2022/01/11 13:46:26;;;;;;;10.43;4.70;;;;;;;;;;5056020;28;20387;-70
2022/01/11 13:48:53;;;;;;;6.80;4.67;;;;;;;;;;5056016;28;20897;-71
2022/01/11 13:51:32;;;;;;;5.80;3.90;;;;;;;;;;5055892;28;20402;-71
2022/01/11 13:54:03;;;;;;;9.23;4.87;;;;;;;;;;5037964;28;20426;-70
2022/01/11 13:56:31;;;;;;;5.20;4.10;;;;;;;;;;5055940;28;20387;-70
2022/01/11 13:58:57;;;;;;;8.40;4.67;;;;;;;;;;5055607;28;20470;-70
2022/01/11 14:01:25;;;;;;;7.90;4.17;;;;;;;;;;5055755;28;20494;-71
2022/01/11 14:03:52;;;;;;;6.27;3.80;;;;;;;;;;5055630;28;20771;-73
2022/01/11 14:06:19;;;;;;;9.40;4.27;;;;;;;;;;5055690;28;20433;-71
2022/01/11 14:08:49;;;;;;;8.73;4.07;;;;;;;;;;5055611;28;20413;-73
2022/01/11 14:11:24;;;;;;;4.87;3.53;;;;;;;;;;5055586;28;20494;-71
2022/01/11 14:13:51;;;;;;;5.80;3.80;;;;;;;;;;5055601;28;20444;-72
2022/01/11 14:16:18;;;;;;;7.40;3.80;;;;;;;;;;5055527;28;20961;-72
2022/01/11 14:19:01;;;;;;;7.17;4.17;;;;;;;;;;5037588;28;20917;-75
2022/01/11 14:21:27;;;;;;;5.10;3.60;;;;;;;;;;5055379;28;20446;-72
2022/01/11 14:23:53;;;;;;;5.37;3.83;;;;;;;;;;5037304;28;20478;-70
2022/01/11 14:26:21;;;;;;;4.60;3.53;;;;;;;;;;5055295;28;20878;-74